sensor_id;sensor_type;location;lat;lon;timestamp;P1;durP1;ratioP1;P2;durP2;ratioP2
45684;SDS011;46836;48.388;16.210;2023-12-20T00:00:36;32.22;;;22.67;;
45684;SDS011;46836;48.388;16.210;2023-12-20T00:03:06;30.73;;;22.80;;
45684;SDS011;46836;48.388;16.210;2023-12-20T00:05:33;34.72;;;24.15;;
45684;SDS011;46836;48.388;16.210;2023-12-20T00:08:01;29.80;;;22.42;;
45684;SDS011;46836;48.388;16.210;2023-12-20T00:10:28;33.70;;;24.63;;
45684;SDS011;46836;48.388;16.210;2023-12-20T00:12:55;37.00;;;25.75;;
45684;SDS011;46836;48.388;16.210;2023-12-20T00:15:23;32.53;;;23.67;;
45684;SDS011;46836;48.388;16.210;2023-12-20T00:17:50;32.88;;;24.25;;
45684;SDS011;46836;48.388;16.210;2023-12-20T00:20:17;35.40;;;25.20;;
45684;SDS011;46836;48.388;16.210;2023-12-20T00:22:44;31.67;;;24.13;;
45684;SDS011;46836;48.388;16.210;2023-12-20T00:25:11;31.23;;;23.38;;
45684;SDS011;46836;48.388;16.210;2023-12-20T00:27:38;29.75;;;22.75;;
45684;SDS011;46836;48.388;16.210;2023-12-20T00:30:06;31.15;;;24.98;;
45684;SDS011;46836;48.388;16.210;2023-12-20T00:32:34;34.53;;;25.20;;
45684;SDS011;46836;48.388;16.210;2023-12-20T00:35:02;34.85;;;23.75;;
45684;SDS011;46836;48.388;16.210;2023-12-20T00:37:29;30.95;;;23.23;;
45684;SDS011;46836;48.388;16.210;2023-12-20T00:39:56;32.70;;;23.67;;
45684;SDS011;46836;48.388;16.210;2023-12-20T00:42:23;36.83;;;25.50;;
45684;SDS011;46836;48.388;16.210;2023-12-20T00:44:50;32.67;;;23.42;;
45684;SDS011;46836;48.388;16.210;2023-12-20T00:47:17;34.60;;;24.58;;
45684;SDS011;46836;48.388;16.210;2023-12-20T00:49:44;32.53;;;24.13;;
45684;SDS011;46836;48.388;16.210;2023-12-20T00:52:11;32.97;;;22.80;;
45684;SDS011;46836;48.388;16.210;2023-12-20T00:54:38;28.88;;;22.88;;
45684;SDS011;46836;48.388;16.210;2023-12-20T00:57:05;31.25;;;22.63;;
45684;SDS011;46836;48.388;16.210;2023-12-20T00:59:32;33.60;;;22.20;;
45684;SDS011;46836;48.388;16.210;2023-12-20T01:01:59;28.80;;;22.38;;
45684;SDS011;46836;48.388;16.210;2023-12-20T01:04:27;31.85;;;23.73;;
45684;SDS011;46836;48.388;16.210;2023-12-20T01:06:54;29.45;;;23.77;;
45684;SDS011;46836;48.388;16.210;2023-12-20T01:09:21;32.05;;;24.70;;
45684;SDS011;46836;48.388;16.210;2023-12-20T01:11:52;32.25;;;23.77;;
45684;SDS011;46836;48.388;16.210;2023-12-20T01:14:20;31.08;;;23.45;;
45684;SDS011;46836;48.388;16.210;2023-12-20T01:16:47;32.20;;;23.33;;
45684;SDS011;46836;48.388;16.210;2023-12-20T01:19:14;34.65;;;23.70;;
45684;SDS011;46836;48.388;16.210;2023-12-20T01:21:41;30.77;;;21.42;;
45684;SDS011;46836;48.388;16.210;2023-12-20T01:24:08;27.92;;;21.55;;
45684;SDS011;46836;48.388;16.210;2023-12-20T01:26:36;28.38;;;23.50;;
45684;SDS011;46836;48.388;16.210;2023-12-20T01:29:03;29.40;;;22.88;;
45684;SDS011;46836;48.388;16.210;2023-12-20T01:31:30;29.75;;;23.00;;
45684;SDS011;46836;48.388;16.210;2023-12-20T01:33:57;29.20;;;21.23;;
45684;SDS011;46836;48.388;16.210;2023-12-20T01:36:24;33.28;;;22.08;;
45684;SDS011;46836;48.388;16.210;2023-12-20T01:38:51;30.63;;;21.67;;
45684;SDS011;46836;48.388;16.210;2023-12-20T01:41:18;28.67;;;21.33;;
45684;SDS011;46836;48.388;16.210;2023-12-20T01:43:45;33.00;;;22.58;;
45684;SDS011;46836;48.388;16.210;2023-12-20T01:46:17;30.92;;;22.90;;
45684;SDS011;46836;48.388;16.210;2023-12-20T01:48:44;29.05;;;21.80;;
45684;SDS011;46836;48.388;16.210;2023-12-20T01:51:12;31.65;;;22.70;;
45684;SDS011;46836;48.388;16.210;2023-12-20T01:53:39;29.95;;;22.67;;
45684;SDS011;46836;48.388;16.210;2023-12-20T01:56:07;30.67;;;22.60;;
45684;SDS011;46836;48.388;16.210;2023-12-20T01:58:36;30.05;;;21.58;;
45684;SDS011;46836;48.388;16.210;2023-12-20T02:01:09;37.65;;;25.02;;
45684;SDS011;46836;48.388;16.210;2023-12-20T02:03:37;40.65;;;24.92;;
45684;SDS011;46836;48.388;16.210;2023-12-20T02:06:04;29.85;;;22.35;;
45684;SDS011;46836;48.388;16.210;2023-12-20T02:08:32;32.47;;;23.42;;
45684;SDS011;46836;48.388;16.210;2023-12-20T02:11:00;34.55;;;24.67;;
45684;SDS011;46836;48.388;16.210;2023-12-20T02:13:27;26.85;;;21.55;;
45684;SDS011;46836;48.388;16.210;2023-12-20T02:15:54;36.95;;;22.58;;
45684;SDS011;46836;48.388;16.210;2023-12-20T02:18:21;33.47;;;21.25;;
45684;SDS011;46836;48.388;16.210;2023-12-20T02:20:49;30.77;;;21.80;;
45684;SDS011;46836;48.388;16.210;2023-12-20T02:23:16;23.58;;;17.90;;
45684;SDS011;46836;48.388;16.210;2023-12-20T02:25:43;19.02;;;12.05;;
45684;SDS011;46836;48.388;16.210;2023-12-20T02:28:10;11.05;;;8.25;;
45684;SDS011;46836;48.388;16.210;2023-12-20T02:30:38;7.28;;;4.75;;
45684;SDS011;46836;48.388;16.210;2023-12-20T02:33:07;5.00;;;4.32;;
45684;SDS011;46836;48.388;16.210;2023-12-20T02:35:37;5.20;;;3.90;;
45684;SDS011;46836;48.388;16.210;2023-12-20T02:38:04;3.92;;;3.63;;
45684;SDS011;46836;48.388;16.210;2023-12-20T02:40:32;4.15;;;3.40;;
45684;SDS011;46836;48.388;16.210;2023-12-20T02:42:59;5.40;;;4.07;;
45684;SDS011;46836;48.388;16.210;2023-12-20T02:45:26;6.45;;;4.35;;
45684;SDS011;46836;48.388;16.210;2023-12-20T02:47:53;6.15;;;3.75;;
45684;SDS011;46836;48.388;16.210;2023-12-20T02:50:21;4.30;;;3.55;;
45684;SDS011;46836;48.388;16.210;2023-12-20T02:52:48;3.65;;;3.22;;
45684;SDS011;46836;48.388;16.210;2023-12-20T02:55:15;4.20;;;3.80;;
45684;SDS011;46836;48.388;16.210;2023-12-20T02:57:42;5.60;;;3.60;;
45684;SDS011;46836;48.388;16.210;2023-12-20T03:00:10;4.25;;;3.85;;
45684;SDS011;46836;48.388;16.210;2023-12-20T03:02:37;5.00;;;4.32;;
45684;SDS011;46836;48.388;16.210;2023-12-20T03:05:04;4.70;;;4.07;;
45684;SDS011;46836;48.388;16.210;2023-12-20T03:07:32;4.85;;;4.22;;
45684;SDS011;46836;48.388;16.210;2023-12-20T03:09:59;6.20;;;5.57;;
45684;SDS011;46836;48.388;16.210;2023-12-20T03:12:44;5.70;;;5.10;;
45684;SDS011;46836;48.388;16.210;2023-12-20T03:15:12;5.85;;;4.32;;
45684;SDS011;46836;48.388;16.210;2023-12-20T03:17:39;5.38;;;4.38;;
45684;SDS011;46836;48.388;16.210;2023-12-20T03:20:06;5.30;;;4.38;;
45684;SDS011;46836;48.388;16.210;2023-12-20T03:22:34;5.68;;;4.60;;
45684;SDS011;46836;48.388;16.210;2023-12-20T03:25:01;5.57;;;4.68;;
45684;SDS011;46836;48.388;16.210;2023-12-20T03:27:28;5.50;;;4.97;;
45684;SDS011;46836;48.388;16.210;2023-12-20T03:29:56;5.45;;;4.95;;
45684;SDS011;46836;48.388;16.210;2023-12-20T03:32:23;8.07;;;5.20;;
45684;SDS011;46836;48.388;16.210;2023-12-20T03:34:50;6.18;;;5.20;;
45684;SDS011;46836;48.388;16.210;2023-12-20T03:37:17;5.95;;;4.80;;
45684;SDS011;46836;48.388;16.210;2023-12-20T03:39:44;5.70;;;5.10;;
45684;SDS011;46836;48.388;16.210;2023-12-20T03:42:11;5.30;;;4.80;;
45684;SDS011;46836;48.388;16.210;2023-12-20T03:44:39;5.55;;;5.05;;
45684;SDS011;46836;48.388;16.210;2023-12-20T03:47:07;5.47;;;4.63;;
45684;SDS011;46836;48.388;16.210;2023-12-20T03:49:34;5.57;;;4.95;;
45684;SDS011;46836;48.388;16.210;2023-12-20T03:52:04;6.18;;;5.40;;
45684;SDS011;46836;48.388;16.210;2023-12-20T03:54:32;6.63;;;5.55;;
45684;SDS011;46836;48.388;16.210;2023-12-20T03:57:01;7.57;;;5.63;;
45684;SDS011;46836;48.388;16.210;2023-12-20T03:59:28;7.53;;;4.90;;
45684;SDS011;46836;48.388;16.210;2023-12-20T04:01:55;5.50;;;4.50;;
45684;SDS011;46836;48.388;16.210;2023-12-20T04:04:22;8.68;;;5.45;;
45684;SDS011;46836;48.388;16.210;2023-12-20T04:06:49;6.97;;;5.75;;
45684;SDS011;46836;48.388;16.210;2023-12-20T04:09:17;6.05;;;4.88;;
45684;SDS011;46836;48.388;16.210;2023-12-20T04:11:44;6.53;;;4.60;;
45684;SDS011;46836;48.388;16.210;2023-12-20T04:14:11;5.10;;;4.60;;
45684;SDS011;46836;48.388;16.210;2023-12-20T04:16:38;5.30;;;4.80;;
45684;SDS011;46836;48.388;16.210;2023-12-20T04:19:08;7.60;;;5.20;;
45684;SDS011;46836;48.388;16.210;2023-12-20T04:21:36;5.45;;;4.95;;
45684;SDS011;46836;48.388;16.210;2023-12-20T04:24:03;6.00;;;4.97;;
45684;SDS011;46836;48.388;16.210;2023-12-20T04:26:30;7.55;;;5.00;;
45684;SDS011;46836;48.388;16.210;2023-12-20T04:28:57;4.82;;;4.28;;
45684;SDS011;46836;48.388;16.210;2023-12-20T04:31:24;6.90;;;5.25;;
45684;SDS011;46836;48.388;16.210;2023-12-20T04:33:51;5.93;;;4.95;;
45684;SDS011;46836;48.388;16.210;2023-12-20T04:36:18;6.32;;;5.20;;
45684;SDS011;46836;48.388;16.210;2023-12-20T04:38:45;6.03;;;5.30;;
45684;SDS011;46836;48.388;16.210;2023-12-20T04:41:12;6.25;;;5.50;;
45684;SDS011;46836;48.388;16.210;2023-12-20T04:43:42;6.25;;;5.65;;
45684;SDS011;46836;48.388;16.210;2023-12-20T04:46:09;6.75;;;4.75;;
45684;SDS011;46836;48.388;16.210;2023-12-20T04:48:36;6.88;;;5.43;;
45684;SDS011;46836;48.388;16.210;2023-12-20T04:51:03;5.63;;;5.13;;
45684;SDS011;46836;48.388;16.210;2023-12-20T04:53:31;7.10;;;4.93;;
45684;SDS011;46836;48.388;16.210;2023-12-20T04:55:58;7.70;;;4.53;;
45684;SDS011;46836;48.388;16.210;2023-12-20T04:58:25;5.88;;;4.60;;
45684;SDS011;46836;48.388;16.210;2023-12-20T05:00:52;6.57;;;4.80;;
45684;SDS011;46836;48.388;16.210;2023-12-20T05:03:19;6.30;;;5.45;;
45684;SDS011;46836;48.388;16.210;2023-12-20T05:05:47;7.03;;;5.30;;
45684;SDS011;46836;48.388;16.210;2023-12-20T05:08:14;5.50;;;5.00;;
45684;SDS011;46836;48.388;16.210;2023-12-20T05:10:42;5.72;;;5.22;;
45684;SDS011;46836;48.388;16.210;2023-12-20T05:13:09;6.40;;;5.50;;
45684;SDS011;46836;48.388;16.210;2023-12-20T05:15:36;8.02;;;5.55;;
45684;SDS011;46836;48.388;16.210;2023-12-20T05:18:03;7.90;;;6.00;;
45684;SDS011;46836;48.388;16.210;2023-12-20T05:20:31;9.00;;;6.60;;
45684;SDS011;46836;48.388;16.210;2023-12-20T05:22:58;8.23;;;5.70;;
45684;SDS011;46836;48.388;16.210;2023-12-20T05:25:25;6.40;;;5.63;;
45684;SDS011;46836;48.388;16.210;2023-12-20T05:27:52;6.57;;;5.93;;
45684;SDS011;46836;48.388;16.210;2023-12-20T05:30:19;6.90;;;5.50;;
45684;SDS011;46836;48.388;16.210;2023-12-20T05:32:46;6.55;;;5.85;;
45684;SDS011;46836;48.388;16.210;2023-12-20T05:35:14;7.78;;;5.80;;
45684;SDS011;46836;48.388;16.210;2023-12-20T05:37:41;6.35;;;5.75;;
45684;SDS011;46836;48.388;16.210;2023-12-20T05:40:10;7.50;;;6.70;;
45684;SDS011;46836;48.388;16.210;2023-12-20T05:42:37;8.55;;;6.15;;
45684;SDS011;46836;48.388;16.210;2023-12-20T05:45:04;6.47;;;5.72;;
45684;SDS011;46836;48.388;16.210;2023-12-20T05:47:32;6.68;;;6.03;;
45684;SDS011;46836;48.388;16.210;2023-12-20T05:49:59;7.70;;;6.50;;
45684;SDS011;46836;48.388;16.210;2023-12-20T05:52:26;7.28;;;6.20;;
45684;SDS011;46836;48.388;16.210;2023-12-20T05:54:53;6.85;;;6.10;;
45684;SDS011;46836;48.388;16.210;2023-12-20T05:57:22;7.80;;;5.97;;
45684;SDS011;46836;48.388;16.210;2023-12-20T05:59:49;7.30;;;5.88;;
45684;SDS011;46836;48.388;16.210;2023-12-20T06:02:16;8.90;;;6.43;;
45684;SDS011;46836;48.388;16.210;2023-12-20T06:04:44;7.47;;;6.45;;
45684;SDS011;46836;48.388;16.210;2023-12-20T06:07:11;8.10;;;6.50;;
45684;SDS011;46836;48.388;16.210;2023-12-20T06:09:39;8.45;;;6.72;;
45684;SDS011;46836;48.388;16.210;2023-12-20T06:12:07;9.20;;;6.60;;
45684;SDS011;46836;48.388;16.210;2023-12-20T06:14:37;8.65;;;6.65;;
45684;SDS011;46836;48.388;16.210;2023-12-20T06:17:04;9.48;;;7.13;;
45684;SDS011;46836;48.388;16.210;2023-12-20T06:19:31;7.40;;;6.53;;
45684;SDS011;46836;48.388;16.210;2023-12-20T06:21:58;10.90;;;7.85;;
45684;SDS011;46836;48.388;16.210;2023-12-20T06:24:25;9.48;;;6.32;;
45684;SDS011;46836;48.388;16.210;2023-12-20T06:26:54;11.88;;;7.25;;
45684;SDS011;46836;48.388;16.210;2023-12-20T06:29:22;7.07;;;6.38;;
45684;SDS011;46836;48.388;16.210;2023-12-20T06:31:49;9.10;;;6.50;;
45684;SDS011;46836;48.388;16.210;2023-12-20T06:34:16;6.78;;;5.32;;
45684;SDS011;46836;48.388;16.210;2023-12-20T06:36:43;8.43;;;6.75;;
45684;SDS011;46836;48.388;16.210;2023-12-20T06:39:11;8.20;;;6.05;;
45684;SDS011;46836;48.388;16.210;2023-12-20T06:41:39;10.00;;;6.32;;
45684;SDS011;46836;48.388;16.210;2023-12-20T06:44:09;6.88;;;5.82;;
45684;SDS011;46836;48.388;16.210;2023-12-20T06:46:36;8.10;;;6.60;;
45684;SDS011;46836;48.388;16.210;2023-12-20T06:49:03;8.88;;;6.18;;
45684;SDS011;46836;48.388;16.210;2023-12-20T06:51:30;7.78;;;6.63;;
45684;SDS011;46836;48.388;16.210;2023-12-20T06:53:57;11.35;;;6.30;;
45684;SDS011;46836;48.388;16.210;2023-12-20T06:56:25;7.10;;;5.95;;
45684;SDS011;46836;48.388;16.210;2023-12-20T06:58:52;7.20;;;6.40;;
45684;SDS011;46836;48.388;16.210;2023-12-20T07:01:19;7.43;;;6.68;;
45684;SDS011;46836;48.388;16.210;2023-12-20T07:03:46;6.95;;;5.97;;
45684;SDS011;46836;48.388;16.210;2023-12-20T07:06:13;8.00;;;7.07;;
45684;SDS011;46836;48.388;16.210;2023-12-20T07:08:43;7.38;;;6.68;;
45684;SDS011;46836;48.388;16.210;2023-12-20T07:11:10;12.30;;;7.03;;
45684;SDS011;46836;48.388;16.210;2023-12-20T07:13:37;7.13;;;6.47;;
45684;SDS011;46836;48.388;16.210;2023-12-20T07:16:05;7.97;;;6.70;;
45684;SDS011;46836;48.388;16.210;2023-12-20T07:18:32;8.63;;;7.13;;
45684;SDS011;46836;48.388;16.210;2023-12-20T07:20:59;8.13;;;6.22;;
45684;SDS011;46836;48.388;16.210;2023-12-20T07:23:26;7.90;;;6.13;;
45684;SDS011;46836;48.388;16.210;2023-12-20T07:25:54;6.82;;;5.65;;
45684;SDS011;46836;48.388;16.210;2023-12-20T07:28:21;7.72;;;5.80;;
45684;SDS011;46836;48.388;16.210;2023-12-20T07:30:48;8.95;;;6.18;;
45684;SDS011;46836;48.388;16.210;2023-12-20T07:33:15;6.50;;;5.90;;
45684;SDS011;46836;48.388;16.210;2023-12-20T07:35:42;7.22;;;6.47;;
45684;SDS011;46836;48.388;16.210;2023-12-20T07:38:12;14.65;;;7.43;;
45684;SDS011;46836;48.388;16.210;2023-12-20T07:40:39;9.18;;;6.65;;
45684;SDS011;46836;48.388;16.210;2023-12-20T07:43:06;10.85;;;7.55;;
45684;SDS011;46836;48.388;16.210;2023-12-20T07:45:33;9.95;;;8.15;;
45684;SDS011;46836;48.388;16.210;2023-12-20T07:48:00;8.10;;;7.28;;
45684;SDS011;46836;48.388;16.210;2023-12-20T07:50:27;8.75;;;6.80;;
45684;SDS011;46836;48.388;16.210;2023-12-20T07:52:55;10.65;;;7.13;;
45684;SDS011;46836;48.388;16.210;2023-12-20T07:55:22;8.45;;;7.28;;
45684;SDS011;46836;48.388;16.210;2023-12-20T07:57:49;11.55;;;7.78;;
45684;SDS011;46836;48.388;16.210;2023-12-20T08:00:16;9.20;;;7.00;;
45684;SDS011;46836;48.388;16.210;2023-12-20T08:02:44;6.95;;;6.15;;
45684;SDS011;46836;48.388;16.210;2023-12-20T08:05:11;7.65;;;6.50;;
45684;SDS011;46836;48.388;16.210;2023-12-20T08:07:38;7.00;;;5.93;;
45684;SDS011;46836;48.388;16.210;2023-12-20T08:10:05;7.00;;;6.03;;
45684;SDS011;46836;48.388;16.210;2023-12-20T08:12:33;6.82;;;5.53;;
45684;SDS011;46836;48.388;16.210;2023-12-20T08:15:01;8.40;;;6.00;;
45684;SDS011;46836;48.388;16.210;2023-12-20T08:17:28;7.22;;;5.95;;
45684;SDS011;46836;48.388;16.210;2023-12-20T08:19:55;10.75;;;7.03;;
45684;SDS011;46836;48.388;16.210;2023-12-20T08:26:33;6.90;;;5.78;;
45684;SDS011;46836;48.388;16.210;2023-12-20T08:29:57;7.47;;;5.18;;
45684;SDS011;46836;48.388;16.210;2023-12-20T08:33:27;8.07;;;6.35;;
45684;SDS011;46836;48.388;16.210;2023-12-20T08:37:06;6.57;;;5.97;;
45684;SDS011;46836;48.388;16.210;2023-12-20T08:40:57;6.85;;;6.15;;
45684;SDS011;46836;48.388;16.210;2023-12-20T08:44:39;6.18;;;5.15;;
45684;SDS011;46836;48.388;16.210;2023-12-20T08:48:09;4.88;;;4.47;;
45684;SDS011;46836;48.388;16.210;2023-12-20T08:51:54;7.25;;;4.45;;
45684;SDS011;46836;48.388;16.210;2023-12-20T09:02:54;5.65;;;3.00;;
45684;SDS011;46836;48.388;16.210;2023-12-20T09:06:29;5.63;;;3.53;;
45684;SDS011;46836;48.388;16.210;2023-12-20T09:09:49;4.60;;;4.10;;
45684;SDS011;46836;48.388;16.210;2023-12-20T09:12:33;5.88;;;5.18;;
45684;SDS011;46836;48.388;16.210;2023-12-20T09:15:00;4.45;;;4.05;;
45684;SDS011;46836;48.388;16.210;2023-12-20T09:17:29;4.80;;;4.28;;
45684;SDS011;46836;48.388;16.210;2023-12-20T09:19:59;5.20;;;4.55;;
45684;SDS011;46836;48.388;16.210;2023-12-20T09:22:27;6.05;;;4.35;;
45684;SDS011;46836;48.388;16.210;2023-12-20T09:24:54;5.00;;;4.00;;
45684;SDS011;46836;48.388;16.210;2023-12-20T09:27:21;4.63;;;4.13;;
45684;SDS011;46836;48.388;16.210;2023-12-20T09:29:48;4.22;;;3.80;;
45684;SDS011;46836;48.388;16.210;2023-12-20T09:32:16;4.05;;;3.63;;
45684;SDS011;46836;48.388;16.210;2023-12-20T09:34:43;3.60;;;3.28;;
45684;SDS011;46836;48.388;16.210;2023-12-20T09:37:10;4.10;;;3.80;;
45684;SDS011;46836;48.388;16.210;2023-12-20T09:39:37;4.13;;;3.72;;
45684;SDS011;46836;48.388;16.210;2023-12-20T09:42:05;5.18;;;4.18;;
45684;SDS011;46836;48.388;16.210;2023-12-20T09:44:33;4.57;;;4.07;;
45684;SDS011;46836;48.388;16.210;2023-12-20T09:47:04;4.00;;;3.55;;
45684;SDS011;46836;48.388;16.210;2023-12-20T09:49:33;5.22;;;3.38;;
45684;SDS011;46836;48.388;16.210;2023-12-20T09:52:01;4.22;;;3.83;;
45684;SDS011;46836;48.388;16.210;2023-12-20T09:54:29;3.30;;;3.10;;
45684;SDS011;46836;48.388;16.210;2023-12-20T09:56:57;3.63;;;3.33;;
45684;SDS011;46836;48.388;16.210;2023-12-20T09:59:24;3.80;;;3.42;;
45684;SDS011;46836;48.388;16.210;2023-12-20T10:01:51;3.15;;;2.85;;
45684;SDS011;46836;48.388;16.210;2023-12-20T10:04:24;3.60;;;3.17;;
45684;SDS011;46836;48.388;16.210;2023-12-20T10:06:56;3.35;;;3.05;;
45684;SDS011;46836;48.388;16.210;2023-12-20T10:09:24;3.20;;;2.90;;
45684;SDS011;46836;48.388;16.210;2023-12-20T10:11:53;3.10;;;2.90;;
45684;SDS011;46836;48.388;16.210;2023-12-20T10:14:21;3.67;;;2.90;;
45684;SDS011;46836;48.388;16.210;2023-12-20T10:16:49;2.97;;;2.78;;
45684;SDS011;46836;48.388;16.210;2023-12-20T10:19:17;3.65;;;3.00;;
45684;SDS011;46836;48.388;16.210;2023-12-20T10:21:45;2.90;;;2.70;;
45684;SDS011;46836;48.388;16.210;2023-12-20T10:24:16;3.33;;;3.08;;
45684;SDS011;46836;48.388;16.210;2023-12-20T10:26:44;3.65;;;2.85;;
45684;SDS011;46836;48.388;16.210;2023-12-20T10:29:11;3.03;;;2.80;;
45684;SDS011;46836;48.388;16.210;2023-12-20T10:31:38;3.42;;;3.13;;
45684;SDS011;46836;48.388;16.210;2023-12-20T10:34:05;3.20;;;3.00;;
45684;SDS011;46836;48.388;16.210;2023-12-20T10:36:33;3.47;;;2.60;;
45684;SDS011;46836;48.388;16.210;2023-12-20T10:39:01;3.55;;;3.25;;
45684;SDS011;46836;48.388;16.210;2023-12-20T10:41:30;3.10;;;2.90;;
45684;SDS011;46836;48.388;16.210;2023-12-20T10:44:01;3.13;;;2.70;;
45684;SDS011;46836;48.388;16.210;2023-12-20T10:46:30;3.20;;;2.90;;
45684;SDS011;46836;48.388;16.210;2023-12-20T10:48:59;3.33;;;3.00;;
45684;SDS011;46836;48.388;16.210;2023-12-20T10:51:29;3.00;;;2.70;;
45684;SDS011;46836;48.388;16.210;2023-12-20T10:53:57;2.88;;;2.65;;
45684;SDS011;46836;48.388;16.210;2023-12-20T10:56:25;2.67;;;2.47;;
45684;SDS011;46836;48.388;16.210;2023-12-20T10:58:58;2.40;;;2.20;;
45684;SDS011;46836;48.388;16.210;2023-12-20T11:01:32;3.00;;;2.35;;
45684;SDS011;46836;48.388;16.210;2023-12-20T11:04:01;2.63;;;2.42;;
45684;SDS011;46836;48.388;16.210;2023-12-20T11:06:38;3.00;;;2.42;;
45684;SDS011;46836;48.388;16.210;2023-12-20T11:09:21;3.03;;;2.60;;
45684;SDS011;46836;48.388;16.210;2023-12-20T11:17:10;2.60;;;2.40;;
45684;SDS011;46836;48.388;16.210;2023-12-20T11:22:26;3.30;;;3.05;;
45684;SDS011;46836;48.388;16.210;2023-12-20T11:25:07;3.20;;;3.00;;
45684;SDS011;46836;48.388;16.210;2023-12-20T11:27:41;4.50;;;2.70;;
45684;SDS011;46836;48.388;16.210;2023-12-20T11:30:14;4.72;;;3.30;;
45684;SDS011;46836;48.388;16.210;2023-12-20T11:32:43;3.88;;;3.45;;
45684;SDS011;46836;48.388;16.210;2023-12-20T11:37:40;4.22;;;3.40;;
45684;SDS011;46836;48.388;16.210;2023-12-20T11:40:12;4.13;;;3.60;;
45684;SDS011;46836;48.388;16.210;2023-12-20T11:42:43;3.75;;;3.42;;
45684;SDS011;46836;48.388;16.210;2023-12-20T11:45:15;3.53;;;3.22;;
45684;SDS011;46836;48.388;16.210;2023-12-20T11:47:49;2.90;;;2.70;;
45684;SDS011;46836;48.388;16.210;2023-12-20T11:50:17;7.35;;;4.05;;
45684;SDS011;46836;48.388;16.210;2023-12-20T11:52:46;3.22;;;2.92;;
45684;SDS011;46836;48.388;16.210;2023-12-20T11:55:14;3.53;;;3.05;;
45684;SDS011;46836;48.388;16.210;2023-12-20T11:57:41;3.70;;;3.35;;
45684;SDS011;46836;48.388;16.210;2023-12-20T12:00:10;3.80;;;3.50;;
45684;SDS011;46836;48.388;16.210;2023-12-20T12:02:37;3.40;;;3.03;;
45684;SDS011;46836;48.388;16.210;2023-12-20T12:05:05;3.20;;;2.85;;
45684;SDS011;46836;48.388;16.210;2023-12-20T12:07:33;3.55;;;3.28;;
45684;SDS011;46836;48.388;16.210;2023-12-20T12:10:01;3.53;;;3.22;;
45684;SDS011;46836;48.388;16.210;2023-12-20T12:12:30;3.47;;;3.13;;
45684;SDS011;46836;48.388;16.210;2023-12-20T12:14:59;3.40;;;3.20;;
45684;SDS011;46836;48.388;16.210;2023-12-20T12:17:26;3.53;;;3.22;;
45684;SDS011;46836;48.388;16.210;2023-12-20T12:20:01;3.95;;;3.65;;
45684;SDS011;46836;48.388;16.210;2023-12-20T12:22:32;3.25;;;3.05;;
45684;SDS011;46836;48.388;16.210;2023-12-20T12:25:08;3.47;;;3.28;;
45684;SDS011;46836;48.388;16.210;2023-12-20T12:27:41;4.70;;;3.53;;
45684;SDS011;46836;48.388;16.210;2023-12-20T12:30:09;3.72;;;3.42;;
45684;SDS011;46836;48.388;16.210;2023-12-20T12:32:37;4.22;;;3.92;;
45684;SDS011;46836;48.388;16.210;2023-12-20T12:35:05;3.67;;;3.38;;
45684;SDS011;46836;48.388;16.210;2023-12-20T12:37:39;4.35;;;3.95;;
45684;SDS011;46836;48.388;16.210;2023-12-20T12:40:11;3.65;;;3.35;;
45684;SDS011;46836;48.388;16.210;2023-12-20T12:42:40;3.90;;;3.60;;
45684;SDS011;46836;48.388;16.210;2023-12-20T12:45:09;7.20;;;4.20;;
45684;SDS011;46836;48.388;16.210;2023-12-20T12:47:39;4.10;;;3.70;;
45684;SDS011;46836;48.388;16.210;2023-12-20T12:50:07;4.10;;;3.70;;
45684;SDS011;46836;48.388;16.210;2023-12-20T12:52:35;3.70;;;3.08;;
45684;SDS011;46836;48.388;16.210;2023-12-20T12:55:02;4.22;;;3.50;;
45684;SDS011;46836;48.388;16.210;2023-12-20T12:57:31;3.42;;;3.15;;
45684;SDS011;46836;48.388;16.210;2023-12-20T13:00:00;3.40;;;3.10;;
45684;SDS011;46836;48.388;16.210;2023-12-20T13:02:29;3.88;;;3.22;;
45684;SDS011;46836;48.388;16.210;2023-12-20T13:04:57;3.00;;;2.78;;
45684;SDS011;46836;48.388;16.210;2023-12-20T13:07:24;3.25;;;3.00;;
45684;SDS011;46836;48.388;16.210;2023-12-20T13:09:51;3.97;;;2.92;;
45684;SDS011;46836;48.388;16.210;2023-12-20T13:12:19;6.85;;;2.95;;
45684;SDS011;46836;48.388;16.210;2023-12-20T13:14:46;3.22;;;2.92;;
45684;SDS011;46836;48.388;16.210;2023-12-20T13:17:13;3.03;;;2.83;;
45684;SDS011;46836;48.388;16.210;2023-12-20T13:19:40;6.18;;;3.50;;
45684;SDS011;46836;48.388;16.210;2023-12-20T13:22:08;4.65;;;3.00;;
45684;SDS011;46836;48.388;16.210;2023-12-20T13:24:35;2.83;;;2.63;;
45684;SDS011;46836;48.388;16.210;2023-12-20T13:27:02;3.35;;;3.05;;
45684;SDS011;46836;48.388;16.210;2023-12-20T13:29:29;3.45;;;3.15;;
45684;SDS011;46836;48.388;16.210;2023-12-20T13:31:56;3.08;;;2.83;;
45684;SDS011;46836;48.388;16.210;2023-12-20T13:34:24;3.30;;;3.00;;
45684;SDS011;46836;48.388;16.210;2023-12-20T13:36:51;2.85;;;2.65;;
45684;SDS011;46836;48.388;16.210;2023-12-20T13:39:19;5.18;;;2.70;;
45684;SDS011;46836;48.388;16.210;2023-12-20T13:41:46;3.03;;;2.72;;
45684;SDS011;46836;48.388;16.210;2023-12-20T13:44:13;2.55;;;2.35;;
45684;SDS011;46836;48.388;16.210;2023-12-20T13:46:41;3.85;;;2.03;;
45684;SDS011;46836;48.388;16.210;2023-12-20T13:49:08;3.85;;;2.10;;
45684;SDS011;46836;48.388;16.210;2023-12-20T13:51:36;2.10;;;1.77;;
45684;SDS011;46836;48.388;16.210;2023-12-20T13:54:03;1.90;;;1.80;;
45684;SDS011;46836;48.388;16.210;2023-12-20T13:56:30;2.25;;;2.05;;
45684;SDS011;46836;48.388;16.210;2023-12-20T13:59:03;3.20;;;2.17;;
45684;SDS011;46836;48.388;16.210;2023-12-20T14:01:30;2.15;;;1.95;;
45684;SDS011;46836;48.388;16.210;2023-12-20T14:03:58;3.90;;;2.35;;
45684;SDS011;46836;48.388;16.210;2023-12-20T14:06:26;3.50;;;2.10;;
45684;SDS011;46836;48.388;16.210;2023-12-20T14:08:54;2.25;;;2.05;;
45684;SDS011;46836;48.388;16.210;2023-12-20T14:11:21;4.72;;;2.00;;
45684;SDS011;46836;48.388;16.210;2023-12-20T14:13:50;3.65;;;1.60;;
45684;SDS011;46836;48.388;16.210;2023-12-20T14:16:18;4.55;;;1.90;;
45684;SDS011;46836;48.388;16.210;2023-12-20T14:18:45;2.45;;;2.00;;
45684;SDS011;46836;48.388;16.210;2023-12-20T14:21:12;2.75;;;2.55;;
45684;SDS011;46836;48.388;16.210;2023-12-20T14:23:39;4.00;;;2.75;;
45684;SDS011;46836;48.388;16.210;2023-12-20T14:26:09;2.50;;;2.30;;
45684;SDS011;46836;48.388;16.210;2023-12-20T14:28:41;2.50;;;2.05;;
45684;SDS011;46836;48.388;16.210;2023-12-20T14:31:08;2.28;;;2.10;;
45684;SDS011;46836;48.388;16.210;2023-12-20T14:33:36;2.08;;;1.88;;
45684;SDS011;46836;48.388;16.210;2023-12-20T14:36:05;2.25;;;2.05;;
45684;SDS011;46836;48.388;16.210;2023-12-20T14:38:33;2.30;;;2.20;;
45684;SDS011;46836;48.388;16.210;2023-12-20T14:41:00;2.10;;;1.95;;
45684;SDS011;46836;48.388;16.210;2023-12-20T14:43:30;2.10;;;2.00;;
45684;SDS011;46836;48.388;16.210;2023-12-20T14:45:57;2.28;;;2.15;;
45684;SDS011;46836;48.388;16.210;2023-12-20T14:48:24;2.20;;;2.10;;
45684;SDS011;46836;48.388;16.210;2023-12-20T14:50:54;2.28;;;2.10;;
45684;SDS011;46836;48.388;16.210;2023-12-20T14:53:21;2.88;;;2.38;;
45684;SDS011;46836;48.388;16.210;2023-12-20T14:55:49;2.28;;;2.17;;
45684;SDS011;46836;48.388;16.210;2023-12-20T14:58:17;2.30;;;2.10;;
45684;SDS011;46836;48.388;16.210;2023-12-20T15:00:44;2.83;;;2.63;;
45684;SDS011;46836;48.388;16.210;2023-12-20T15:03:11;3.05;;;2.25;;
45684;SDS011;46836;48.388;16.210;2023-12-20T15:05:39;3.00;;;2.25;;
45684;SDS011;46836;48.388;16.210;2023-12-20T15:08:07;4.30;;;2.53;;